createdAt,value
2023-01-06T00:01:02.107Z,90.28
2023-01-06T00:06:08.011Z,90.63
2023-01-06T00:11:12.112Z,90.46
2023-01-06T00:16:16.595Z,91.29
2023-01-06T00:21:20.164Z,91.00
2023-01-06T00:26:24.691Z,91.01
2023-01-06T00:31:27.300Z,91.43
2023-01-06T00:36:30.697Z,91.32
2023-01-06T00:41:51.558Z,91.60
2023-01-06T00:46:53.926Z,91.52
2023-01-06T00:51:57.386Z,90.67
2023-01-06T00:57:00.671Z,90.84
2023-01-06T01:02:03.012Z,91.05
2023-01-06T01:07:06.654Z,90.62
2023-01-06T01:12:10.356Z,90.87
2023-01-06T01:17:13.840Z,90.44
2023-01-06T01:22:17.619Z,90.01
2023-01-06T01:27:19.934Z,90.23
2023-01-06T01:32:21.868Z,90.17
2023-01-06T01:37:25.316Z,90.93
2023-01-06T01:42:27.337Z,90.05
2023-01-06T01:47:43.633Z,90.01
2023-01-06T01:52:49.903Z,89.98
2023-01-06T01:57:58.451Z,89.92
2023-01-06T02:03:00.936Z,89.95
2023-01-06T02:08:14.242Z,89.87
2023-01-06T02:13:16.283Z,89.54
2023-01-06T02:18:34.660Z,90.70
2023-01-06T02:23:56.572Z,90.61
2023-01-06T02:29:18.990Z,91.42
2023-01-06T02:34:33.589Z,90.73
2023-01-06T02:39:46.323Z,91.05
2023-01-06T02:45:00.088Z,90.38
2023-01-06T02:50:15.763Z,90.64
2023-01-06T02:55:24.754Z,89.67
2023-01-06T03:00:33.599Z,89.49
2023-01-06T03:05:38.360Z,89.00
2023-01-06T03:10:43.599Z,88.94
2023-01-06T03:15:45.601Z,88.88
2023-01-06T03:20:53.150Z,89.66
2023-01-06T03:25:55.305Z,89.44
2023-01-06T03:31:06.139Z,89.82
2023-01-06T03:36:19.362Z,89.63
2023-01-06T03:41:49.959Z,88.74
2023-01-06T03:47:00.010Z,88.90
2023-01-06T03:52:10.391Z,88.65
2023-01-06T03:57:16.911Z,87.68
2023-01-06T04:02:20.271Z,87.40
2023-01-06T04:07:23.616Z,86.68
2023-01-06T04:12:41.095Z,87.17
2023-01-06T04:17:44.192Z,86.59
2023-01-06T04:22:47.491Z,86.43
2023-01-06T04:27:50.593Z,85.76
2023-01-06T04:32:52.695Z,85.75
2023-01-06T04:37:55.986Z,86.02
2023-01-06T04:43:04.087Z,86.02
2023-01-06T04:48:06.324Z,84.85
2023-01-06T04:53:10.978Z,84.84
2023-01-06T04:58:13.181Z,85.41
2023-01-06T05:03:15.111Z,86.14
2023-01-06T05:08:18.443Z,86.29
2023-01-06T05:13:20.386Z,85.44
2023-01-06T05:18:22.560Z,86.40
2023-01-06T05:23:25.940Z,86.06
2023-01-06T05:28:28.409Z,85.71
2023-01-06T05:33:31.905Z,85.55
2023-01-06T05:38:35.228Z,85.83
2023-01-06T05:43:37.750Z,86.83
2023-01-06T05:48:40.259Z,85.85
2023-01-06T05:53:45.947Z,84.92
2023-01-06T05:58:49.652Z,85.21
2023-01-06T06:03:52.819Z,85.08
2023-01-06T06:08:56.544Z,84.87
2023-01-06T06:13:58.757Z,85.58
2023-01-06T06:19:01.003Z,85.30
2023-01-06T06:24:05.001Z,85.41
2023-01-06T06:29:07.658Z,85.77
2023-01-06T06:34:12.588Z,85.15
2023-01-06T06:39:15.886Z,85.14
2023-01-06T06:44:17.851Z,85.47
2023-01-06T06:49:19.814Z,86.17
2023-01-06T06:54:23.127Z,84.97
2023-01-06T06:59:25.111Z,83.75
2023-01-06T07:04:27.140Z,83.90
2023-01-06T07:09:30.525Z,84.53
2023-01-06T07:14:32.507Z,85.75
2023-01-06T07:19:35.161Z,85.08
2023-01-06T07:24:38.466Z,85.36
2023-01-06T07:29:40.502Z,84.33
2023-01-06T07:34:42.503Z,83.74
2023-01-06T07:39:45.845Z,85.18
2023-01-06T07:44:47.795Z,84.29
2023-01-06T07:49:50.032Z,83.85
2023-01-06T07:54:53.393Z,81.43
2023-01-06T07:59:56.017Z,83.04
2023-01-06T08:04:59.534Z,82.66
2023-01-06T08:10:04.490Z,82.62
2023-01-06T08:15:07.721Z,82.18
2023-01-06T08:20:10.226Z,82.33
2023-01-06T08:25:13.626Z,84.38
2023-01-06T08:30:20.036Z,82.38
2023-01-06T08:35:21.994Z,80.98
2023-01-06T08:40:25.378Z,80.80
2023-01-06T08:45:27.512Z,82.40
2023-01-06T08:50:29.791Z,78.01
2023-01-06T08:55:33.204Z,78.82
2023-01-06T09:00:35.501Z,77.67
2023-01-06T09:05:37.879Z,77.94
2023-01-06T09:10:41.304Z,78.30
2023-01-06T09:15:44.892Z,76.23
2023-01-06T09:20:47.002Z,77.20
2023-01-06T09:25:51.373Z,75.54
2023-01-06T09:30:53.478Z,75.53
2023-01-06T09:35:55.468Z,74.26
2023-01-06T09:41:16.301Z,73.75
2023-01-06T09:46:23.384Z,75.03
2023-01-06T09:51:28.210Z,74.54
2023-01-06T09:56:31.855Z,74.43
2023-01-06T10:01:37.995Z,73.93
2023-01-06T10:06:44.610Z,74.06
2023-01-06T10:11:58.465Z,72.57
2023-01-06T10:17:17.975Z,73.15
2023-01-06T10:22:27.538Z,70.47
2023-01-06T10:27:36.356Z,73.20
2023-01-06T10:32:38.674Z,72.65
2023-01-06T10:37:44.398Z,71.35
2023-01-06T10:42:57.588Z,74.05
2023-01-06T10:48:01.463Z,70.93
2023-01-06T10:53:04.202Z,70.35
2023-01-06T10:58:23.358Z,70.03
2023-01-06T11:03:35.039Z,70.48
2023-01-06T11:08:39.633Z,71.60
2023-01-06T11:13:47.574Z,72.10
2023-01-06T11:18:54.688Z,71.00
2023-01-06T11:24:14.914Z,71.51
2023-01-06T11:29:24.433Z,72.08
2023-01-06T11:34:29.216Z,72.73
2023-01-06T11:39:34.911Z,72.50
2023-01-06T11:44:40.078Z,71.75
2023-01-06T11:49:46.762Z,72.56
2023-01-06T11:54:58.116Z,71.82
2023-01-06T12:00:23.978Z,71.34
2023-01-06T12:05:32.413Z,72.07
2023-01-06T12:10:36.251Z,72.00
2023-01-06T12:15:41.326Z,71.05
2023-01-06T12:20:46.955Z,73.64
2023-01-06T12:25:51.425Z,72.84
2023-01-06T12:31:01.689Z,71.57
2023-01-06T12:36:12.077Z,74.92
2023-01-06T12:41:20.268Z,70.79
2023-01-06T12:46:31.005Z,71.86
2023-01-06T12:51:39.311Z,72.10
2023-01-06T12:57:04.973Z,70.50
2023-01-06T13:02:19.344Z,72.20
2023-01-06T13:07:34.557Z,69.00
2023-01-06T13:13:01.796Z,70.69
2023-01-06T13:18:13.623Z,71.21
2023-01-06T13:23:29.954Z,70.44
2023-01-06T13:28:43.191Z,70.70
2023-01-06T13:34:11.226Z,70.34
2023-01-06T13:39:16.634Z,69.79
2023-01-06T13:44:22.914Z,73.29
2023-01-06T13:49:26.747Z,70.23
2023-01-06T13:55:00.682Z,70.85
2023-01-06T14:00:16.040Z,71.55
2023-01-06T14:05:50.432Z,71.94
2023-01-06T14:11:02.708Z,73.39
2023-01-06T14:16:08.607Z,74.09
2023-01-06T14:21:25.355Z,73.83
2023-01-06T14:26:50.783Z,74.12
2023-01-06T14:31:52.878Z,73.89
2023-01-06T14:36:56.989Z,74.03
2023-01-06T14:42:05.130Z,74.50
2023-01-06T14:47:11.923Z,74.23
2023-01-06T14:52:18.255Z,72.62
2023-01-06T14:57:26.524Z,74.04
2023-01-06T15:02:29.208Z,75.70
2023-01-06T15:07:31.432Z,75.12
2023-01-06T15:12:34.778Z,75.40
2023-01-06T15:17:36.802Z,76.55
2023-01-06T15:22:39.474Z,75.37
2023-01-06T15:27:49.018Z,75.24
2023-01-06T15:32:52.244Z,74.63
2023-01-06T15:38:01.814Z,76.06
2023-01-06T15:43:40.731Z,75.84
2023-01-06T15:48:47.511Z,76.24
2023-01-06T15:53:58.666Z,76.47
2023-01-06T15:59:02.853Z,74.05
2023-01-06T16:04:05.676Z,75.98
2023-01-06T16:09:30.522Z,74.66
2023-01-06T16:14:35.775Z,75.75
2023-01-06T16:19:45.278Z,75.33
2023-01-06T16:24:50.309Z,75.78
2023-01-06T16:30:21.037Z,76.54
2023-01-06T16:35:25.070Z,76.43
2023-01-06T16:40:28.574Z,75.59
2023-01-06T16:45:37.155Z,76.33
2023-01-06T16:50:40.781Z,75.38
2023-01-06T16:55:43.335Z,76.77
2023-01-06T17:00:51.820Z,77.85
2023-01-06T17:06:28.447Z,79.30
2023-01-06T17:11:37.670Z,79.10
2023-01-06T17:16:44.762Z,79.42
2023-01-06T17:21:48.690Z,79.37
2023-01-06T17:26:55.168Z,79.47
2023-01-06T17:32:02.497Z,80.22
2023-01-06T17:37:12.987Z,80.28
2023-01-06T17:42:28.106Z,80.78
2023-01-06T17:47:42.235Z,80.23
2023-01-06T17:53:04.377Z,80.26
2023-01-06T17:58:14.031Z,80.42
2023-01-06T18:03:19.725Z,80.03
2023-01-06T18:08:23.922Z,79.72
2023-01-06T18:13:32.363Z,79.51
2023-01-06T18:18:38.466Z,81.14
2023-01-06T18:23:42.101Z,82.58
2023-01-06T18:28:44.138Z,82.52
2023-01-06T18:33:47.719Z,82.68
2023-01-06T18:38:50.008Z,83.20
2023-01-06T18:43:52.469Z,82.17
2023-01-06T18:48:56.255Z,82.41
2023-01-06T18:53:58.445Z,81.36
2023-01-06T18:59:00.433Z,79.82
2023-01-06T19:04:09.848Z,80.67
2023-01-06T19:09:26.038Z,79.02
2023-01-06T19:14:31.760Z,80.33
2023-01-06T19:19:38.081Z,80.52
2023-01-06T19:24:52.559Z,79.38
2023-01-06T19:30:01.245Z,80.19
2023-01-06T19:35:22.787Z,80.56
2023-01-06T19:40:27.110Z,80.95
2023-01-06T19:45:32.449Z,80.89
2023-01-06T19:50:36.986Z,82.61
2023-01-06T19:55:38.977Z,84.41
2023-01-06T20:00:47.776Z,84.21
2023-01-06T20:05:51.132Z,85.13
2023-01-06T20:10:53.025Z,85.59
2023-01-06T20:15:55.376Z,86.53
2023-01-06T20:20:58.937Z,86.28
2023-01-06T20:26:01.000Z,86.82
2023-01-06T20:31:03.002Z,84.94
2023-01-06T20:36:08.021Z,84.96
2023-01-06T20:41:10.215Z,84.38
2023-01-06T20:46:13.463Z,84.08
2023-01-06T20:51:16.887Z,84.06
2023-01-06T20:56:18.811Z,84.00
2023-01-06T21:01:20.993Z,84.45
2023-01-06T21:06:24.488Z,84.71
2023-01-06T21:11:26.526Z,83.97
2023-01-06T21:16:29.153Z,84.64
2023-01-06T21:21:32.584Z,83.94
2023-01-06T21:26:34.635Z,83.76
2023-01-06T21:31:36.737Z,84.25
2023-01-06T21:36:40.820Z,84.12
2023-01-06T21:42:01.697Z,84.89
2023-01-06T21:47:03.926Z,85.34
2023-01-06T21:52:08.021Z,86.23
2023-01-06T21:57:10.575Z,86.29
2023-01-06T22:02:14.423Z,86.40
2023-01-06T22:07:17.820Z,87.03
2023-01-06T22:12:20.209Z,87.64
2023-01-06T22:17:23.713Z,88.55
2023-01-06T22:22:28.541Z,88.34
2023-01-06T22:27:30.624Z,89.12
2023-01-06T22:32:32.714Z,90.05
2023-01-06T22:37:36.091Z,89.45
2023-01-06T22:42:38.028Z,89.51
2023-01-06T22:47:40.366Z,90.29
2023-01-06T22:52:43.955Z,89.96
2023-01-06T22:57:45.930Z,90.16
2023-01-06T23:02:48.103Z,90.06
2023-01-06T23:07:51.790Z,89.27
2023-01-06T23:12:53.812Z,88.85
2023-01-06T23:17:56.055Z,87.79
2023-01-06T23:22:59.359Z,86.82
2023-01-06T23:28:01.467Z,86.83
2023-01-06T23:33:03.763Z,86.64
2023-01-06T23:38:07.613Z,85.93
2023-01-06T23:43:09.642Z,85.31
2023-01-06T23:48:11.633Z,84.34
2023-01-06T23:53:15.005Z,83.97
2023-01-06T23:58:16.995Z,85.17
